Terminal Aerodrome Forecast
Issued by NWS St Louis, MO

Home | Current Version | Previous Version | Text Only | Print | Product List | Glossary On
Versions: 1 2 3 4 5 6 7 8 9 10 11 12 13 14 15 16 17
000
FTUS43 KLSX 151738
TAFCOU
TAF
KCOU 151738Z 1518/1618 24017G25KT P6SM BKN120
     FM152200 26014G22KT P6SM VCSH SCT050 BKN120
     FM160000 31011KT P6SM OVC050
     FM160600 35016G24KT P6SM OVC025
     FM161500 35014KT P6SM SCT250=

USA.gov is the U.S. government's official web portal to all federal, state and local government web resources and services.